Time;durP1;ratioP1;P1;durP2;ratioP2;P2;SDS_P1;SDS_P2;PMS_P1;PMS_P2;Temp;Humidity;BMP_temperature;BMP_pressure;BME280_temperature;BME280_humidity;BME280_pressure;Samples;Min_cycle;Max_cycle;Signal;HPM_P1;HPM_P2
2021/12/11 00:01:10;;;;;;;131.63;73.80;;;;;;;-2.22;92.99;100345.72;10503411;28;20036;-78
2021/12/11 00:06:13;;;;;;;137.90;73.13;;;;;;;-2.27;93.31;100352.09;10491797;28;20567;-79
2021/12/11 00:11:24;;;;;;;143.25;74.75;;;;;;;-2.18;93.16;100368.31;10493706;28;20043;-80
2021/12/11 00:16:25;;;;;;;143.20;70.10;;;;;;;-2.12;93.65;100376.56;10495722;28;20043;-83
2021/12/11 00:21:26;;;;;;;145.80;75.15;;;;;;;-1.98;93.71;100385.50;10481803;28;20123;-79
2021/12/11 00:26:30;;;;;;;138.40;71.60;;;;;;;-1.78;93.30;100400.09;10506914;28;20495;-80
2021/12/11 00:31:31;;;;;;;158.38;80.10;;;;;;;-1.46;93.54;100410.50;10495131;28;20488;-79
2021/12/11 00:36:32;;;;;;;176.40;86.65;;;;;;;-1.15;94.14;100423.47;10477500;28;20033;-79
2021/12/11 00:41:33;;;;;;;182.68;95.35;;;;;;;-0.85;93.82;100425.25;10477332;28;20036;-78
2021/12/11 00:46:34;;;;;;;151.77;81.90;;;;;;;-0.64;94.25;100441.59;10492868;28;20032;-81
2021/12/11 00:51:34;;;;;;;200.50;104.20;;;;;;;-0.49;93.75;100453.94;10518188;28;20034;-79
2021/12/11 00:56:39;;;;;;;221.68;105.38;;;;;;;-0.34;94.00;100467.22;10518650;28;20032;-79
2021/12/11 01:01:55;;;;;;;207.48;101.82;;;;;;;-0.26;94.25;100476.50;10521241;28;20036;-79
2021/12/11 01:07:02;;;;;;;240.80;110.20;;;;;;;-0.19;93.98;100478.81;10502166;28;20392;-79
2021/12/11 01:12:12;;;;;;;221.20;108.28;;;;;;;-0.17;94.42;100494.34;10503561;28;20038;-79
2021/12/11 01:17:41;;;;;;;219.27;104.78;;;;;;;-0.10;94.25;100508.66;10503607;28;20040;-79
2021/12/11 01:22:43;;;;;;;248.73;114.38;;;;;;;-0.05;93.86;100522.81;10537731;28;20126;-79
2021/12/11 01:27:45;;;;;;;254.93;113.90;;;;;;;-0.04;94.34;100530.63;10518533;28;20514;-80
2021/12/11 01:32:46;;;;;;;225.75;109.13;;;;;;;-0.01;94.55;100540.31;10518284;28;20290;-79
2021/12/11 01:37:47;;;;;;;246.00;112.40;;;;;;;0.06;93.84;100555.50;10519596;28;20048;-80
2021/12/11 01:42:48;;;;;;;233.57;106.53;;;;;;;0.08;94.04;100560.75;10503311;28;20044;-79
2021/12/11 01:47:48;;;;;;;280.27;123.65;;;;;;;0.06;94.11;100572.59;10502718;28;20070;-80
2021/12/11 01:52:53;;;;;;;258.90;119.88;;;;;;;0.05;94.42;100579.44;10518298;28;20444;-80
2021/12/11 01:57:54;;;;;;;254.52;121.18;;;;;;;0.11;94.33;100594.47;10502572;28;20036;-79
2021/12/11 02:02:56;;;;;;;277.10;123.30;;;;;;;0.13;94.40;100608.38;10526308;28;20028;-80
2021/12/11 02:07:58;;;;;;;280.23;118.57;;;;;;;0.18;93.98;100614.81;10492705;28;20036;-80
2021/12/11 02:12:59;;;;;;;262.08;118.53;;;;;;;0.22;94.44;100626.28;10526192;28;20451;-80
2021/12/11 02:18:10;;;;;;;270.58;121.68;;;;;;;0.21;94.47;100642.50;10509684;28;20035;-80
2021/12/11 02:23:12;;;;;;;270.88;119.75;;;;;;;0.21;94.22;100645.06;10543468;28;20032;-79
2021/12/11 02:28:31;;;;;;;271.90;112.57;;;;;;;0.18;94.14;100650.84;10509778;28;20016;-80
2021/12/11 02:33:38;;;;;;;254.77;104.15;;;;;;;0.20;94.29;100677.63;10492332;28;20020;-80
2021/12/11 02:38:59;;;;;;;288.90;113.32;;;;;;;0.21;94.09;100683.69;10524868;28;20062;-79
2021/12/11 02:44:08;;;;;;;284.92;117.78;;;;;;;0.21;94.10;100687.16;10525298;28;20491;-79
2021/12/11 02:49:15;;;;;;;295.10;118.70;;;;;;;0.27;94.35;100694.50;10509643;28;20067;-80
2021/12/11 02:54:19;;;;;;;266.10;116.93;;;;;;;0.26;93.82;100708.16;10543092;28;20468;-80
2021/12/11 02:59:22;;;;;;;308.45;122.55;;;;;;;0.30;94.37;100717.94;10523849;28;20103;-78
2021/12/11 03:04:27;;;;;;;294.42;118.82;;;;;;;0.30;94.60;100720.53;10508872;28;20036;-78
2021/12/11 03:09:28;;;;;;;275.67;120.15;;;;;;;0.31;94.01;100726.56;10523160;28;20415;-78
2021/12/11 03:14:29;;;;;;;289.75;125.75;;;;;;;0.26;93.96;100732.22;10524239;28;20031;-78
2021/12/11 03:19:31;;;;;;;300.73;126.57;;;;;;;0.25;94.13;100743.28;10523206;28;20039;-78
2021/12/11 03:24:33;;;;;;;312.55;132.57;;;;;;;0.29;94.16;100747.03;10507943;28;20494;-78
2021/12/11 03:29:34;;;;;;;331.20;132.35;;;;;;;0.27;94.45;100754.59;10506893;28;20043;-78
2021/12/11 03:34:34;;;;;;;317.33;131.10;;;;;;;0.33;94.48;100758.47;10505497;28;20043;-78
2021/12/11 03:39:40;;;;;;;290.63;122.97;;;;;;;0.33;93.94;100767.13;10505746;28;20040;-78
2021/12/11 03:44:41;;;;;;;328.27;128.77;;;;;;;0.38;94.26;100770.09;10522381;28;20542;-78
2021/12/11 03:49:47;;;;;;;335.70;133.00;;;;;;;0.37;94.19;100782.06;10506523;28;20032;-78
2021/12/11 03:54:50;;;;;;;283.48;115.25;;;;;;;0.37;94.35;100782.06;10505627;28;20056;-78
2021/12/11 03:59:52;;;;;;;271.48;119.13;;;;;;;0.38;94.50;100785.53;10523387;28;20055;-78
2021/12/11 04:04:55;;;;;;;279.60;132.60;;;;;;;0.41;94.39;100798.69;10510303;28;20047;-78
2021/12/11 04:09:55;;;;;;;296.92;128.75;;;;;;;0.40;94.02;100805.50;10521799;28;20028;-78
2021/12/11 04:14:56;;;;;;;293.77;112.15;;;;;;;0.45;94.11;100813.63;10540265;28;20024;-78
2021/12/11 04:20:03;;;;;;;342.08;135.65;;;;;;;0.45;94.48;100823.94;10521639;28;20097;-78
2021/12/11 04:25:06;;;;;;;349.90;131.77;;;;;;;0.47;94.15;100819.81;10539171;28;20020;-78
2021/12/11 04:30:08;;;;;;;298.63;124.85;;;;;;;0.46;94.47;100830.88;10487154;28;20095;-78
2021/12/11 04:35:10;;;;;;;307.08;119.97;;;;;;;0.48;94.46;100831.91;10519853;28;20035;-78
2021/12/11 04:40:20;;;;;;;316.75;129.27;;;;;;;0.52;93.62;100840.84;10522169;28;20024;-78
2021/12/11 04:45:47;;;;;;;303.23;123.07;;;;;;;0.59;93.92;100838.03;10538822;28;20024;-78
2021/12/11 04:50:57;;;;;;;332.45;131.57;;;;;;;0.57;93.99;100849.88;10519998;28;20063;-77
2021/12/11 04:56:26;;;;;;;333.73;127.95;;;;;;;0.58;93.91;100859.41;10520765;28;20043;-78
2021/12/11 05:06:34;;;;;;;328.60;118.78;;;;;;;0.64;93.71;100869.31;10536928;28;20085;-77
2021/12/11 05:11:42;;;;;;;313.45;119.13;;;;;;;0.70;93.83;100878.50;10521240;28;20042;-78
2021/12/11 05:16:43;;;;;;;280.98;111.90;;;;;;;0.67;93.79;100887.63;10519631;28;20544;-77
2021/12/11 05:21:44;;;;;;;323.52;120.40;;;;;;;0.68;93.70;100889.44;10519357;28;20028;-77
2021/12/11 05:26:44;;;;;;;316.70;122.45;;;;;;;0.71;94.25;100906.06;10518638;28;20013;-77
2021/12/11 05:31:45;;;;;;;286.63;107.93;;;;;;;0.86;93.91;100910.75;10518474;28;20116;-78
2021/12/11 05:36:47;;;;;;;296.15;116.00;;;;;;;0.84;94.01;100920.03;10518279;28;20093;-77
2021/12/11 05:41:47;;;;;;;292.73;106.78;;;;;;;0.84;93.78;100925.19;10502117;28;20036;-77
2021/12/11 05:46:49;;;;;;;284.73;111.22;;;;;;;0.99;93.57;100934.25;10519464;28;20495;-78
2021/12/11 05:51:50;;;;;;;246.77;98.63;;;;;;;1.01;93.93;100939.53;10535883;28;20111;-78
2021/12/11 05:56:59;;;;;;;290.67;107.85;;;;;;;0.96;93.80;100938.22;10485159;28;20044;-78
2021/12/11 06:02:14;;;;;;;258.10;101.68;;;;;;;1.03;93.58;100943.13;10493079;28;20864;-79
2021/12/11 06:07:15;;;;;;;261.00;100.75;;;;;;;0.99;93.72;100944.56;10499476;28;20024;-79
2021/12/11 06:12:16;;;;;;;276.33;104.50;;;;;;;1.03;94.17;100961.19;10515058;28;20028;-77
2021/12/11 06:17:21;;;;;;;255.57;103.80;;;;;;;1.06;94.05;100965.72;10511547;28;20432;-77
2021/12/11 06:22:25;;;;;;;238.73;93.75;;;;;;;1.13;94.05;100978.38;10501130;28;20032;-78
2021/12/11 06:27:26;;;;;;;215.88;85.25;;;;;;;1.17;93.38;100985.59;10484656;28;20031;-79
2021/12/11 06:32:27;;;;;;;244.13;95.43;;;;;;;1.19;93.76;101007.28;10500699;28;20056;-80
2021/12/11 06:37:27;;;;;;;212.27;80.40;;;;;;;1.27;93.81;101003.69;10516866;28;20511;-77
2021/12/11 06:42:29;;;;;;;206.80;83.45;;;;;;;1.31;93.78;101004.84;10498123;28;20527;-78
2021/12/11 06:47:29;;;;;;;208.05;81.90;;;;;;;1.27;93.80;101010.50;10539110;28;20036;-77
2021/12/11 06:52:30;;;;;;;183.85;72.80;;;;;;;1.29;93.76;101019.28;10525163;28;20548;-78
2021/12/11 06:57:30;;;;;;;188.20;77.22;;;;;;;1.29;93.47;101030.50;10508708;28;20110;-78
2021/12/11 07:02:31;;;;;;;214.40;87.97;;;;;;;1.29;93.50;101046.00;10522735;28;20062;-77
2021/12/11 07:07:33;;;;;;;199.90;84.15;;;;;;;1.39;94.18;101054.53;10543082;28;20467;-77
2021/12/11 07:12:33;;;;;;;175.03;68.93;;;;;;;1.41;94.04;101051.31;10523584;28;20475;-78
2021/12/11 07:17:34;;;;;;;187.50;77.53;;;;;;;1.38;93.38;101051.03;10524100;28;20027;-79
2021/12/11 07:22:35;;;;;;;173.23;73.10;;;;;;;1.41;93.32;101068.47;10505432;28;20064;-79
2021/12/11 07:27:36;;;;;;;176.02;70.55;;;;;;;1.50;93.53;101074.44;10524128;28;20456;-78
2021/12/11 07:32:37;;;;;;;225.70;85.45;;;;;;;1.49;93.53;101074.28;10521785;28;20043;-78
2021/12/11 07:37:38;;;;;;;188.23;78.93;;;;;;;1.58;93.23;101077.66;10523570;28;20085;-78
2021/12/11 07:42:38;;;;;;;163.98;69.70;;;;;;;1.63;93.37;101094.44;10522624;28;20036;-79
2021/12/11 07:47:39;;;;;;;173.80;72.25;;;;;;;1.65;93.78;101095.47;10522571;28;20063;-79
2021/12/11 07:52:39;;;;;;;171.85;73.75;;;;;;;1.72;93.62;101092.66;10538781;28;20035;-79
2021/12/11 07:57:40;;;;;;;171.60;69.05;;;;;;;1.73;93.63;101103.91;10522355;28;20035;-79
2021/12/11 08:02:41;;;;;;;160.55;70.15;;;;;;;1.72;93.44;101110.72;10540185;28;20028;-79
2021/12/11 08:07:41;;;;;;;167.55;69.85;;;;;;;1.78;93.51;101120.69;10522332;28;20063;-79
2021/12/11 08:12:42;;;;;;;165.98;73.40;;;;;;;1.78;93.20;101122.34;10539257;28;20050;-78
2021/12/11 08:17:43;;;;;;;159.18;68.00;;;;;;;1.85;93.17;101141.09;10505068;28;20032;-78
2021/12/11 08:22:43;;;;;;;142.93;68.25;;;;;;;1.92;93.63;101144.22;10521269;28;20039;-80
2021/12/11 08:27:44;;;;;;;157.68;66.07;;;;;;;1.86;93.38;101155.81;10518998;28;20034;-80
2021/12/11 08:32:44;;;;;;;143.13;69.25;;;;;;;1.94;93.07;101171.97;10503777;28;20035;-80
2021/12/11 08:37:47;;;;;;;141.80;64.38;;;;;;;2.00;93.26;101177.66;10522340;28;20389;-80
2021/12/11 08:42:48;;;;;;;143.68;68.05;;;;;;;2.15;93.16;101177.19;10503500;28;20044;-80
2021/12/11 08:47:51;;;;;;;153.85;68.78;;;;;;;2.16;93.24;101174.75;10521235;28;20035;-80
2021/12/11 08:52:52;;;;;;;127.20;60.72;;;;;;;2.31;93.39;101172.56;10538834;28;20024;-80
2021/12/11 08:57:52;;;;;;;123.43;61.95;;;;;;;2.40;93.27;101195.72;10486354;28;20055;-79
2021/12/11 09:03:00;;;;;;;132.52;59.25;;;;;;;2.48;93.37;101194.69;10487340;28;20077;-79
2021/12/11 09:08:07;;;;;;;126.00;60.45;;;;;;;2.60;93.19;101201.69;10504277;28;20040;-79
2021/12/11 09:13:24;;;;;;;129.02;57.30;;;;;;;2.70;93.21;101204.25;10519975;28;20028;-79
2021/12/11 09:18:31;;;;;;;106.63;55.17;;;;;;;2.89;93.13;101208.41;10519449;28;20024;-79
2021/12/11 09:23:41;;;;;;;99.95;47.25;;;;;;;2.81;93.15;101212.03;10504179;28;20383;-79
2021/12/11 09:28:45;;;;;;;97.05;51.92;;;;;;;3.14;92.63;101220.81;10519463;28;20485;-78
2021/12/11 09:33:54;;;;;;;77.93;41.65;;;;;;;3.46;92.04;101238.97;10519410;28;20028;-79
2021/12/11 09:39:00;;;;;;;71.95;35.03;;;;;;;3.61;91.94;101244.50;10502786;28;20028;-78
2021/12/11 09:44:09;;;;;;;47.28;23.63;;;;;;;4.44;91.38;101244.16;10494640;28;20041;-78
2021/12/11 09:49:11;;;;;;;42.70;21.48;;;;;;;4.60;88.15;101241.06;10479227;28;20090;-79
2021/12/11 09:54:14;;;;;;;;;;;;;;;4.93;86.25;101246.13;10495206;28;20037;-78
2021/12/11 09:59:16;;;;;;;30.00;14.30;;;;;;;5.43;85.09;101253.34;10494090;28;19912;-79
2021/12/11 10:04:18;;;;;;;;;;;;;;;5.31;84.21;101278.38;10491370;28;20031;-79
2021/12/11 10:09:21;;;;;;;37.15;11.85;;;;;;;5.16;85.84;101276.41;10485265;28;19916;-78
2021/12/11 10:14:28;;;;;;;25.27;10.02;;;;;;;4.70;86.32;101290.25;10475729;28;20056;-79
2021/12/11 10:19:29;;;;;;;22.17;9.77;;;;;;;4.68;87.47;101297.00;10492769;28;20055;-78
2021/12/11 10:24:30;;;;;;;26.80;8.65;;;;;;;4.90;86.72;101296.06;10452234;28;20028;-78
2021/12/11 10:29:31;;;;;;;19.38;8.48;;;;;;;4.88;87.12;101301.94;10500494;28;20028;-76
2021/12/11 10:34:32;;;;;;;33.75;9.63;;;;;;;4.95;86.63;101301.63;10501406;28;20456;-77
2021/12/11 10:39:33;;;;;;;16.92;6.65;;;;;;;5.08;85.63;101314.78;10484489;28;20530;-77
2021/12/11 10:44:36;;;;;;;19.25;6.93;;;;;;;5.04;85.29;101320.50;10498579;28;20404;-77
2021/12/11 10:49:36;;;;;;;27.10;9.00;;;;;;;5.07;86.33;101322.41;10484085;28;20068;-77
2021/12/11 10:54:37;;;;;;;14.35;8.02;;;;;;;5.18;86.18;101325.84;10495003;28;20147;-77
2021/12/11 10:59:40;;;;;;;18.33;8.18;;;;;;;5.41;85.41;101332.78;10483369;28;20380;-78
2021/12/11 11:04:46;;;;;;;22.08;9.63;;;;;;;5.52;85.08;101337.09;10500582;28;20396;-77
2021/12/11 11:09:48;;;;;;;17.02;9.80;;;;;;;5.60;83.88;101345.50;10480811;28;20031;-78
2021/12/11 11:14:48;;;;;;;17.90;7.57;;;;;;;5.62;83.20;101355.97;10499798;28;20435;-77
2021/12/11 11:19:49;;;;;;;23.35;7.10;;;;;;;6.67;81.07;101360.16;10500679;28;20021;-77
2021/12/11 11:24:55;;;;;;;16.67;8.48;;;;;;;6.49;79.96;101375.34;10481965;28;20029;-77
2021/12/11 11:29:56;;;;;;;16.02;7.95;;;;;;;6.06;82.36;101386.13;10497124;28;20029;-77
2021/12/11 11:35:13;;;;;;;17.73;7.82;;;;;;;6.09;81.88;101396.75;10481812;28;20032;-77
2021/12/11 11:40:18;;;;;;;14.88;7.20;;;;;;;6.53;80.89;101403.38;10498397;28;20036;-77
2021/12/11 11:45:19;;;;;;;16.65;7.90;;;;;;;6.45;80.24;101418.44;10505741;28;20434;-77
2021/12/11 11:50:21;;;;;;;11.23;7.07;;;;;;;7.50;77.46;101424.94;10486608;28;20026;-78
2021/12/11 11:55:28;;;;;;;15.35;8.95;;;;;;;7.42;76.13;101436.53;10540653;28;20063;-77
2021/12/11 12:00:31;;;;;;;17.50;7.57;;;;;;;6.79;78.18;101446.91;10520517;28;20073;-78
2021/12/11 12:05:35;;;;;;;15.88;7.10;;;;;;;6.50;79.61;101449.97;10509774;28;20031;-77
2021/12/11 12:10:37;;;;;;;18.00;8.23;;;;;;;6.27;79.87;101449.16;10521061;28;20039;-77
2021/12/11 12:15:46;;;;;;;21.27;6.45;;;;;;;6.17;81.30;101450.19;10521121;28;20035;-78
2021/12/11 12:20:50;;;;;;;26.73;7.57;;;;;;;6.16;80.58;101461.38;10476423;28;20395;-78
2021/12/11 12:25:51;;;;;;;19.60;6.82;;;;;;;6.15;81.24;101476.06;10498106;28;20031;-78
2021/12/11 12:31:01;;;;;;;8.85;4.18;;;;;;;5.81;82.99;101478.66;10502804;28;20027;-78
2021/12/11 12:36:01;;;;;;;17.55;9.10;;;;;;;5.68;83.13;101489.81;10503648;28;20036;-77
2021/12/11 12:41:05;;;;;;;18.67;9.75;;;;;;;5.51;83.83;101487.59;10512545;28;20495;-78
2021/12/11 12:46:05;;;;;;;16.63;9.23;;;;;;;5.54;83.93;101499.09;10503548;28;20043;-78
2021/12/11 12:51:07;;;;;;;14.15;8.65;;;;;;;5.55;84.13;101500.91;10521136;28;20111;-77
2021/12/11 12:56:30;;;;;;;16.52;8.65;;;;;;;5.67;83.75;101506.19;10500973;28;20028;-77
2021/12/11 13:01:40;;;;;;;15.27;10.05;;;;;;;5.61;82.98;101508.31;10461736;28;20028;-78
2021/12/11 13:06:46;;;;;;;21.27;10.80;;;;;;;5.63;83.18;101498.94;10477773;28;20123;-77
2021/12/11 13:12:12;;;;;;;19.40;9.20;;;;;;;5.70;83.46;101509.00;10523579;28;20020;-78
2021/12/11 13:17:17;;;;;;;22.25;10.02;;;;;;;6.05;82.04;101514.25;10535735;28;20059;-78
2021/12/11 13:22:23;;;;;;;18.35;9.02;;;;;;;5.84;81.68;101524.75;10520218;28;20111;-78
2021/12/11 13:27:25;;;;;;;22.65;8.50;;;;;;;5.88;82.42;101516.41;10536204;28;20030;-78
2021/12/11 13:32:28;;;;;;;12.85;7.95;;;;;;;6.64;79.92;101531.63;10500924;28;20028;-78
2021/12/11 13:37:39;;;;;;;16.63;7.78;;;;;;;7.46;76.49;101550.53;10518531;28;20040;-78
2021/12/11 13:42:39;;;;;;;28.42;9.38;;;;;;;7.40;75.74;101556.22;10534263;28;20827;-78
2021/12/11 13:47:40;;;;;;;22.15;8.13;;;;;;;6.73;77.38;101561.81;10537796;28;20036;-78
2021/12/11 13:52:40;;;;;;;22.48;8.88;;;;;;;6.20;79.54;101563.88;10518210;28;20434;-78
2021/12/11 13:57:41;;;;;;;10.38;6.00;;;;;;;5.86;79.91;101578.63;10525569;28;20035;-78
2021/12/11 14:02:41;;;;;;;16.13;7.70;;;;;;;5.49;80.85;101577.44;10544468;28;20185;-77
2021/12/11 14:07:42;;;;;;;15.85;7.90;;;;;;;5.31;81.78;101588.16;10524548;28;20034;-78
2021/12/11 14:12:43;;;;;;;15.73;6.50;;;;;;;5.29;82.13;101598.41;10505835;28;20029;-78
2021/12/11 14:17:43;;;;;;;17.77;9.68;;;;;;;5.32;82.69;101596.84;10522836;28;20484;-77
2021/12/11 14:22:44;;;;;;;13.75;7.93;;;;;;;5.32;82.87;101600.38;10510355;28;20036;-78
2021/12/11 14:27:45;;;;;;;21.50;9.95;;;;;;;5.49;83.22;101604.31;10542825;28;20024;-76
2021/12/11 14:32:52;;;;;;;27.98;10.88;;;;;;;5.73;82.66;101622.63;10524039;28;20028;-77
2021/12/11 14:37:53;;;;;;;24.55;9.57;;;;;;;5.69;81.93;101625.75;10478947;28;20035;-77
2021/12/11 14:42:54;;;;;;;17.98;9.13;;;;;;;5.38;81.56;101634.59;10482692;28;20055;-76
2021/12/11 14:47:54;;;;;;;17.67;9.02;;;;;;;5.04;83.04;101646.50;10484144;28;20037;-77
2021/12/11 14:52:56;;;;;;;26.13;12.57;;;;;;;4.86;84.15;101657.16;10466344;28;20021;-77
2021/12/11 14:57:56;;;;;;;28.88;14.88;;;;;;;4.78;84.42;101668.59;10500974;28;20032;-77
2021/12/11 15:02:57;;;;;;;37.22;14.27;;;;;;;4.67;84.81;101676.38;10476249;28;20031;-77
2021/12/11 15:07:59;;;;;;;22.05;11.98;;;;;;;4.54;84.65;101683.88;10502606;28;20073;-77
2021/12/11 15:12:59;;;;;;;30.27;12.93;;;;;;;4.31;85.95;101676.75;10507572;28;20571;-77
2021/12/11 15:18:00;;;;;;;23.98;12.00;;;;;;;4.15;85.54;101685.78;10523815;28;20118;-76
2021/12/11 15:23:01;;;;;;;22.30;11.55;;;;;;;3.85;86.15;101689.19;10540177;28;20035;-77
2021/12/11 15:28:01;;;;;;;22.13;14.27;;;;;;;3.45;85.95;101697.81;10523180;28;20065;-77
2021/12/11 15:33:02;;;;;;;32.15;14.20;;;;;;;3.19;87.58;101696.38;10522963;28;20381;-77
2021/12/11 15:38:03;;;;;;;26.90;13.88;;;;;;;2.96;87.11;101711.47;10522818;28;20032;-77
2021/12/11 15:43:06;;;;;;;26.35;13.60;;;;;;;2.62;87.98;101722.22;10505593;28;20047;-77
2021/12/11 15:48:07;;;;;;;25.65;15.90;;;;;;;2.54;89.18;101747.31;10541122;28;20119;-77
2021/12/11 15:53:07;;;;;;;26.42;15.13;;;;;;;2.48;89.50;101739.91;10521471;28;20116;-77
2021/12/11 15:58:08;;;;;;;39.83;19.60;;;;;;;2.23;89.66;101751.28;10521830;28;20119;-77
2021/12/11 16:03:09;;;;;;;41.63;20.55;;;;;;;2.26;90.53;101746.41;10504394;28;20032;-77
2021/12/11 16:08:10;;;;;;;35.20;17.73;;;;;;;2.08;90.44;101761.97;10494804;28;20498;-77
2021/12/11 16:13:14;;;;;;;39.90;17.75;;;;;;;1.80;90.12;101763.53;10533859;28;20024;-76
2021/12/11 16:18:15;;;;;;;46.20;20.92;;;;;;;1.66;90.14;101765.66;10500973;28;20044;-76
2021/12/11 16:23:16;;;;;;;28.13;17.13;;;;;;;1.60;91.06;101775.38;10512358;28;20048;-76
2021/12/11 16:28:18;;;;;;;37.97;20.73;;;;;;;1.40;90.84;101776.03;10508724;28;20034;-76
2021/12/11 16:33:18;;;;;;;33.37;20.27;;;;;;;1.38;91.06;101781.00;10525718;28;20024;-77
2021/12/11 16:38:23;;;;;;;48.17;24.05;;;;;;;1.76;91.74;101788.16;10499990;28;20422;-78
2021/12/11 16:43:27;;;;;;;38.83;22.92;;;;;;;1.69;91.45;101794.34;10504554;28;20032;-76
2021/12/11 16:48:29;;;;;;;40.30;22.60;;;;;;;1.61;91.27;101797.84;10516505;28;20491;-76
2021/12/11 16:53:31;;;;;;;40.83;23.40;;;;;;;1.38;91.34;101800.75;10517754;28;20062;-76
2021/12/11 16:58:34;;;;;;;38.03;22.38;;;;;;;1.21;91.45;101807.72;10533052;28;20023;-76
2021/12/11 17:03:35;;;;;;;55.50;31.70;;;;;;;1.04;91.61;101830.88;10518804;28;20032;-77
2021/12/11 17:08:36;;;;;;;83.72;46.80;;;;;;;0.89;91.61;101831.16;10495430;28;20051;-77
2021/12/11 17:13:36;;;;;;;72.07;39.72;;;;;;;0.66;91.73;101844.25;10483570;28;20373;-76
2021/12/11 17:18:38;;;;;;;58.20;34.85;;;;;;;0.82;91.81;101841.59;10500408;28;20081;-77
2021/12/11 17:23:40;;;;;;;64.82;34.83;;;;;;;0.72;92.13;101844.88;10492820;28;20065;-77
2021/12/11 17:28:49;;;;;;;48.47;28.35;;;;;;;0.59;91.97;101845.28;10515326;28;20055;-77
2021/12/11 17:33:57;;;;;;;49.10;29.58;;;;;;;0.46;91.39;101847.34;10516282;28;20872;-77
2021/12/11 17:39:02;;;;;;;71.13;35.50;;;;;;;0.32;91.74;101856.19;10503868;28;20036;-73
2021/12/11 17:44:04;;;;;;;69.50;30.10;;;;;;;0.41;92.54;101849.44;10484531;28;20044;-74
2021/12/11 17:49:05;;;;;;;39.20;23.13;;;;;;;0.51;92.25;101859.03;10439268;28;20709;-74
2021/12/11 17:54:08;;;;;;;44.97;22.30;;;;;;;0.72;92.46;101868.06;10482804;28;20551;-76
2021/12/11 17:59:08;;;;;;;;;;;;;;;0.83;92.82;101866.59;10465658;28;20479;-74
2021/12/11 18:04:25;;;;;;;49.33;26.45;;;;;;;1.11;92.91;101872.00;10473245;28;19923;-74
2021/12/11 18:09:27;;;;;;;72.00;29.00;;;;;;;1.15;92.79;101880.19;10427110;28;20078;-75
2021/12/11 18:14:42;;;;;;;63.22;26.30;;;;;;;1.14;92.86;101883.53;10480420;28;20128;-74
2021/12/11 18:19:48;;;;;;;46.35;24.92;;;;;;;1.22;93.17;101891.13;10445104;28;20033;-74
2021/12/11 18:24:53;;;;;;;45.65;29.33;;;;;;;1.23;92.99;101895.53;10463747;28;20503;-75
2021/12/11 18:29:54;;;;;;;50.72;29.27;;;;;;;1.55;93.14;101900.47;10462909;28;20045;-80
2021/12/11 18:34:57;;;;;;;50.42;25.83;;;;;;;1.54;92.79;101903.81;10469984;28;20064;-79
2021/12/11 18:40:05;;;;;;;40.88;24.08;;;;;;;1.42;92.98;101914.72;10454103;28;20021;-78
2021/12/11 18:45:09;;;;;;;42.95;24.10;;;;;;;1.30;93.08;101909.22;10468959;28;20044;-77
2021/12/11 18:50:12;;;;;;;47.17;24.63;;;;;;;1.25;92.63;101912.09;10499351;28;20436;-78
2021/12/11 18:55:18;;;;;;;45.22;25.48;;;;;;;1.04;92.76;101927.19;10496243;28;20032;-77
2021/12/11 19:00:24;;;;;;;59.30;28.75;;;;;;;0.99;92.58;101923.22;10482650;28;20020;-79
2021/12/11 19:05:32;;;;;;;51.47;25.98;;;;;;;0.88;92.52;101929.84;10464748;28;20052;-78
2021/12/11 19:10:33;;;;;;;53.17;28.98;;;;;;;0.66;92.46;101930.19;10498678;28;20464;-78
2021/12/11 19:15:43;;;;;;;41.25;22.48;;;;;;;0.63;92.47;101931.53;10476249;28;20043;-79
2021/12/11 19:20:57;;;;;;;64.32;34.72;;;;;;;0.91;92.83;101935.34;10482136;28;20477;-78
2021/12/11 19:25:58;;;;;;;52.75;29.80;;;;;;;0.95;93.27;101937.47;10483210;28;20075;-78
2021/12/11 19:31:01;;;;;;;49.35;29.63;;;;;;;0.94;92.62;101942.47;10499258;28;20070;-79
2021/12/11 19:36:07;;;;;;;81.43;37.83;;;;;;;0.84;93.04;101931.19;10482209;28;20539;-78
2021/12/11 19:41:11;;;;;;;58.55;31.67;;;;;;;0.70;92.47;101910.81;10483987;28;20060;-78
2021/12/11 19:46:12;;;;;;;77.85;33.58;;;;;;;0.54;92.32;101924.66;10507585;28;20494;-78
2021/12/11 19:51:17;;;;;;;52.63;31.08;;;;;;;0.49;92.41;101928.41;10521867;28;20114;-78
2021/12/11 19:56:18;;;;;;;52.30;29.60;;;;;;;0.29;92.18;101929.81;10506573;28;20028;-79
2021/12/11 20:01:24;;;;;;;62.00;34.38;;;;;;;0.25;92.67;101931.91;10539493;28;20028;-78
2021/12/11 20:06:26;;;;;;;69.63;34.25;;;;;;;0.11;92.27;101938.16;10488333;28;20031;-78
2021/12/11 20:11:30;;;;;;;48.17;29.48;;;;;;;0.05;93.04;101950.34;10487564;28;20074;-78
2021/12/11 20:16:31;;;;;;;61.58;33.15;;;;;;;0.04;93.02;101949.47;10520330;28;20040;-78
2021/12/11 20:21:35;;;;;;;54.22;32.35;;;;;;;0.08;92.62;101963.56;10505845;28;20062;-79
2021/12/11 20:26:36;;;;;;;64.70;35.78;;;;;;;0.08;93.07;101958.41;10489083;28;20069;-79
2021/12/11 20:31:39;;;;;;;60.45;33.67;;;;;;;0.13;93.26;101964.97;10521525;28;20391;-78
2021/12/11 20:36:40;;;;;;;62.25;33.17;;;;;;;0.27;93.18;101964.78;10520586;28;20039;-79
2021/12/11 20:41:47;;;;;;;69.38;35.72;;;;;;;0.43;93.11;101966.41;10519412;28;20094;-78
2021/12/11 20:46:48;;;;;;;61.00;33.60;;;;;;;0.64;93.02;101966.84;10503528;28;20439;-77
2021/12/11 20:51:50;;;;;;;53.47;29.80;;;;;;;0.50;93.18;101965.41;10519626;28;20119;-78
2021/12/11 20:56:50;;;;;;;53.72;33.13;;;;;;;0.36;93.28;101969.09;10520289;28;20047;-78
2021/12/11 21:01:55;;;;;;;55.55;31.75;;;;;;;0.50;93.00;101968.88;10519668;28;20492;-77
2021/12/11 21:07:15;;;;;;;57.08;30.10;;;;;;;0.56;92.85;101976.38;10484908;28;20403;-79
2021/12/11 21:12:23;;;;;;;60.65;29.92;;;;;;;0.65;93.20;101971.25;10518448;28;20051;-78
2021/12/11 21:17:30;;;;;;;60.28;29.40;;;;;;;0.79;93.45;101968.47;10500644;28;20055;-78
2021/12/11 21:22:43;;;;;;;53.58;30.00;;;;;;;0.70;92.88;101973.56;10517800;28;20106;-78
2021/12/11 21:27:47;;;;;;;61.33;27.13;;;;;;;0.62;93.29;101976.09;10504609;28;20502;-78
2021/12/11 21:32:49;;;;;;;43.20;24.95;;;;;;;0.81;92.91;101964.38;10536793;28;20020;-79
2021/12/11 21:37:50;;;;;;;55.83;25.50;;;;;;;0.86;92.82;101967.44;10518882;28;20161;-79
2021/12/11 21:42:53;;;;;;;49.63;25.63;;;;;;;0.93;92.95;101964.75;10518457;28;20560;-79
2021/12/11 21:47:59;;;;;;;45.63;23.90;;;;;;;1.08;93.13;101968.00;10503180;28;20082;-79
2021/12/11 21:52:59;;;;;;;51.22;22.80;;;;;;;1.14;92.72;101966.06;10518870;28;20085;-78
2021/12/11 21:58:02;;;;;;;36.22;22.08;;;;;;;1.29;92.67;101969.31;10496061;28;20418;-79
2021/12/11 22:03:06;;;;;;;36.60;19.63;;;;;;;1.39;92.60;101966.00;10518066;28;20039;-77
2021/12/11 22:08:06;;;;;;;39.08;17.95;;;;;;;1.45;92.16;101974.34;10517964;28;20028;-78
2021/12/11 22:13:07;;;;;;;29.73;17.05;;;;;;;1.55;92.09;101989.13;10501744;28;20024;-81
2021/12/11 22:18:08;;;;;;;43.47;18.27;;;;;;;1.59;91.97;101990.34;10541276;28;20177;-80
2021/12/11 22:23:08;;;;;;;40.88;19.27;;;;;;;1.62;91.36;101988.06;10525663;28;20383;-80
2021/12/11 22:28:09;;;;;;;39.30;19.88;;;;;;;1.80;91.11;101973.53;10526128;28;20499;-80
2021/12/11 22:33:10;;;;;;;24.35;13.55;;;;;;;1.88;90.41;101969.13;10525515;28;20032;-80
2021/12/11 22:38:11;;;;;;;34.07;16.40;;;;;;;1.87;89.89;101990.56;10508585;28;20046;-80
2021/12/11 22:43:16;;;;;;;31.40;15.38;;;;;;;1.94;90.07;101998.16;10525855;28;20127;-80
2021/12/11 22:48:18;;;;;;;27.90;14.52;;;;;;;1.98;89.49;101976.16;10509495;28;20044;-80
2021/12/11 22:53:21;;;;;;;28.65;12.05;;;;;;;2.02;89.13;101981.75;10525067;28;20123;-80
2021/12/11 22:58:34;;;;;;;30.83;11.05;;;;;;;2.10;88.44;101998.03;10507558;28;20024;-80